»·PEaware :: N7565G L88-KSBP

N7565G :: L88-KSBP

FLIGHT INFORMATION

Flight Status: Arrived
Operator: Privately registered:
United States
More flights under this callsign
Pilot: Reuben K. (13591)
Aircraft: CESSNA 172 SKYHAWK
(C172)
More flights by this aircraft type
Origin: L88 New Cuyama
United States
Destination: KSBP San Luis Co Regl
United States
More flights between these airports :: More routes between these airports
Route:
File this flight plan on PilotEdge
Remarks: CAT-2 RATING
Altitude:
(Current/Filed)
5,500ft
Speed:
(Current/Filed)
115kts
Departed: 12-Feb-19 05:25 PM
Arrived: 12-Feb-19 05:55 PM
Distance/Time
Traveled:
50nm/0:29
Distance/Time
To Go:
Arrived

Flight Plot

Page will automatically refresh every two minutes.


Map Options




Map Legend


Flown Route
Filed Route
Departure Airport
Arrival Airport
Navaid (VOR, NDB)
Fix

Horizontal Profiles

Position Reports

Time Latitude Longitude Heading Altitude Ground
Speed
12-Feb-19 16:53 34.942568 -119.691270 202 2207ft 0kts
12-Feb-19 16:54 34.942568 -119.691270 202 2207ft 0kts
12-Feb-19 16:55 34.942568 -119.691270 202 2207ft 0kts
12-Feb-19 16:56 34.942568 -119.691270 202 2207ft 0kts
12-Feb-19 16:57 34.942568 -119.691270 202 2207ft 0kts
12-Feb-19 16:58 34.942568 -119.691270 202 2207ft 0kts
12-Feb-19 16:59 34.942568 -119.691270 202 2207ft 0kts
12-Feb-19 17:00 34.942568 -119.691270 202 2207ft 0kts
12-Feb-19 17:00 34.942568 -119.691270 202 2207ft 0kts
12-Feb-19 17:02 34.942568 -119.691270 202 2207ft 0kts
12-Feb-19 17:03 34.942568 -119.691270 202 2207ft 0kts
12-Feb-19 17:03 34.942568 -119.691270 202 2207ft 0kts
12-Feb-19 17:04 34.942568 -119.691270 202 2207ft 0kts
12-Feb-19 17:05 34.942568 -119.691270 202 2207ft 0kts
12-Feb-19 17:06 34.942568 -119.691270 202 2207ft 0kts
12-Feb-19 17:07 34.942568 -119.691270 202 2207ft 0kts
12-Feb-19 17:08 34.942568 -119.691270 202 2207ft 0kts
12-Feb-19 17:09 34.942568 -119.691270 202 2207ft 0kts
12-Feb-19 17:10 34.942568 -119.691270 202 2207ft 0kts
12-Feb-19 17:11 34.942568 -119.691270 202 2207ft 0kts
12-Feb-19 17:12 34.942568 -119.691270 202 2207ft 0kts
12-Feb-19 17:13 34.942568 -119.691270 202 2207ft 0kts
12-Feb-19 17:14 34.942568 -119.691270 202 2207ft 0kts
12-Feb-19 17:15 34.942568 -119.691270 202 2207ft 0kts
12-Feb-19 17:16 34.942568 -119.691270 202 2207ft 0kts
12-Feb-19 17:17 34.942568 -119.691270 202 2207ft 0kts
12-Feb-19 17:18 34.942568 -119.691270 202 2207ft 0kts
12-Feb-19 17:19 34.942568 -119.691270 202 2207ft 0kts
12-Feb-19 17:20 34.942568 -119.691270 202 2207ft 0kts
12-Feb-19 17:21 34.942568 -119.691270 202 2207ft 0kts
12-Feb-19 17:22 34.942568 -119.691270 202 2207ft 0kts
12-Feb-19 17:23 34.942568 -119.691270 202 2207ft 0kts
12-Feb-19 17:24 34.937421 -119.678675 103 2495ft 81kts
12-Feb-19 17:25 34.953345 -119.671313 321 3421ft 80kts
12-Feb-19 17:26 34.957526 -119.697466 269 4293ft 81kts
12-Feb-19 17:27 34.966081 -119.723122 286 5100ft 83kts
12-Feb-19 17:28 34.978544 -119.749464 294 5550ft 98kts
12-Feb-19 17:29 34.987964 -119.780952 289 5766ft 100kts
12-Feb-19 17:30 34.999384 -119.815336 296 5603ft 111kts
12-Feb-19 17:31 35.011039 -119.850055 294 5461ft 110kts
12-Feb-19 17:32 35.021708 -119.884818 292 5380ft 106kts
12-Feb-19 17:33 35.029812 -119.919211 285 5342ft 105kts
12-Feb-19 17:34 35.038350 -119.953008 279 5326ft 103kts
12-Feb-19 17:35 35.047438 -119.986477 286 5302ft 103kts
12-Feb-19 17:36 35.057451 -120.019541 292 5287ft 104kts
12-Feb-19 17:37 35.066327 -120.052841 288 5343ft 102kts
12-Feb-19 17:38 35.076245 -120.086455 289 5411ft 113kts
12-Feb-19 17:39 35.086793 -120.124503 286 5443ft 123kts
12-Feb-19 17:40 35.098027 -120.164031 288 5441ft 124kts
12-Feb-19 17:41 35.109348 -120.203835 289 5425ft 124kts
12-Feb-19 17:42 35.120950 -120.243566 289 5407ft 124kts
12-Feb-19 17:43 35.133095 -120.283041 293 5393ft 124kts
12-Feb-19 17:44 35.145109 -120.322503 289 5378ft 124kts
12-Feb-19 17:45 35.155673 -120.362185 289 5174ft 121kts
12-Feb-19 17:46 35.166782 -120.401752 285 4733ft 123kts
12-Feb-19 17:47 35.173348 -120.442644 284 4338ft 122kts
12-Feb-19 17:48 35.181549 -120.482809 285 3907ft 125kts
12-Feb-19 17:49 35.190287 -120.524056 285 3134ft 117kts
12-Feb-19 17:50 35.197020 -120.554476 286 2492ft 84kts
12-Feb-19 17:51 35.204702 -120.581176 293 1579ft 82kts
12-Feb-19 17:52 35.215972 -120.603865 306 1015ft 67kts
12-Feb-19 17:53 35.226853 -120.622566 306 557ft 69kts
12-Feb-19 17:54 35.235484 -120.637706 306 216ft 25kts
12-Feb-19 17:55 35.238161 -120.639644 23 216ft 10kts
12-Feb-19 17:56 35.238533 -120.639817 267 216ft 0kts
12-Feb-19 17:57 35.238533 -120.639817 267 216ft 0kts
12-Feb-19 17:58 35.238533 -120.639817 267 216ft 0kts
12-Feb-19 17:59 35.238533 -120.639817 267 216ft 0kts
12-Feb-19 18:00 35.238533 -120.639817 267 216ft 0kts
12-Feb-19 18:01 35.238533 -120.639817 267 216ft 0kts
12-Feb-19 18:02 35.238533 -120.639817 267 216ft 0kts
12-Feb-19 18:03 35.238533 -120.639817 267 216ft 0kts
12-Feb-19 18:04 35.238533 -120.639817 267 216ft 0kts
12-Feb-19 18:05 35.238533 -120.639817 267 216ft 0kts
12-Feb-19 18:06 35.238533 -120.639817 267 216ft 0kts
12-Feb-19 18:07 35.238533 -120.639817 267 216ft 0kts
12-Feb-19 18:08 35.238533 -120.639817 267 216ft 0kts

Navigation Log

Ident Type
Flight plan parsing failed, navigation log unavailable